createdAt,value
2018-02-09T00:00:22.682Z,3.6
2018-02-09T00:01:22.667Z,3.7
2018-02-09T00:02:22.655Z,3.7
2018-02-09T00:03:22.628Z,3.7
2018-02-09T00:04:22.613Z,3.6
2018-02-09T00:05:22.594Z,3.7
2018-02-09T00:06:22.580Z,3.7
2018-02-09T00:07:22.560Z,3.7
2018-02-09T00:08:22.544Z,3.7
2018-02-09T00:09:22.526Z,3.7
2018-02-09T00:10:22.510Z,3.6
2018-02-09T00:11:22.492Z,3.8
2018-02-09T00:12:22.474Z,3.7
2018-02-09T00:13:22.458Z,3.8
2018-02-09T00:14:22.190Z,3.31
2018-02-09T00:15:22.424Z,3.8
2018-02-09T00:16:22.408Z,3.89
2018-02-09T00:17:22.140Z,3.8
2018-02-09T00:18:22.374Z,3.89
2018-02-09T00:19:22.357Z,3.6
2018-02-09T00:20:22.341Z,3.6
2018-02-09T00:21:22.321Z,3.8
2018-02-09T00:22:22.322Z,3.7
2018-02-09T00:23:22.290Z,3.6
2018-02-09T00:24:22.271Z,3.7
2018-02-09T00:25:22.004Z,3.6
2018-02-09T00:26:22.239Z,3.8
2018-02-09T00:27:22.229Z,3.6
2018-02-09T00:28:22.208Z,3.8
2018-02-09T00:29:22.186Z,3.6
2018-02-09T00:30:21.919Z,3.8
2018-02-09T00:31:21.902Z,3.6
2018-02-09T00:32:21.884Z,3.7
2018-02-09T00:33:21.873Z,3.8
2018-02-09T00:34:21.851Z,3.6
2018-02-09T00:35:21.834Z,3.7
2018-02-09T00:36:21.819Z,3.8
2018-02-09T00:37:21.801Z,3.6
2018-02-09T00:38:22.034Z,3.7
2018-02-09T00:39:21.766Z,3.7
2018-02-09T00:40:21.750Z,3.7
2018-02-09T00:41:21.983Z,3.6
2018-02-09T00:42:21.714Z,3.7
2018-02-09T00:43:21.698Z,3.7
2018-02-09T00:44:21.932Z,3.89
2018-02-09T00:45:21.663Z,3.6
2018-02-09T00:46:21.903Z,3.6
2018-02-09T00:47:21.630Z,3.6
2018-02-09T00:48:21.864Z,3.6
2018-02-09T00:49:21.596Z,3.7
2018-02-09T00:50:21.579Z,3.6
2018-02-09T00:51:21.813Z,3.7
2018-02-09T00:52:21.546Z,3.41
2018-02-09T00:53:21.528Z,3.6
2018-02-09T00:54:21.762Z,3.8
2018-02-09T00:55:21.745Z,3.5
2018-02-09T00:56:21.476Z,3.6
2018-02-09T00:57:21.710Z,3.7
2018-02-09T00:58:21.700Z,3.6
2018-02-09T00:59:21.678Z,3.6
2018-02-09T01:00:21.408Z,3.6
2018-02-09T01:01:21.645Z,3.6
2018-02-09T01:02:21.375Z,3.6
2018-02-09T01:03:21.609Z,3.6
2018-02-09T01:04:21.605Z,3.5
2018-02-09T01:05:21.579Z,3.6
2018-02-09T01:06:21.308Z,3.6
2018-02-09T01:07:21.540Z,3.6
2018-02-09T01:08:21.523Z,3.5
2018-02-09T01:09:21.256Z,3.5
2018-02-09T01:10:21.239Z,3.5
2018-02-09T01:11:21.471Z,3.7
2018-02-09T01:12:21.456Z,3.41
2018-02-09T01:13:21.439Z,3.6
2018-02-09T01:14:21.422Z,3.6
2018-02-09T01:15:21.425Z,3.7
2018-02-09T01:16:21.389Z,3.6
2018-02-09T01:17:21.372Z,3.6
2018-02-09T01:18:21.360Z,3.5
2018-02-09T01:19:21.336Z,3.6
2018-02-09T01:20:21.322Z,3.5
2018-02-09T01:21:21.054Z,3.6
2018-02-09T01:22:21.287Z,3.5
2018-02-09T01:23:21.274Z,3.6
2018-02-09T01:24:21.252Z,3.5
2018-02-09T01:25:21.240Z,3.6
2018-02-09T01:26:21.217Z,3.7
2018-02-09T01:27:21.204Z,3.6
2018-02-09T01:28:21.184Z,3.5
2018-02-09T01:29:21.167Z,3.5
2018-02-09T01:30:21.149Z,3.5
2018-02-09T01:31:21.134Z,3.6
2018-02-09T01:32:21.118Z,3.5
2018-02-09T01:33:20.849Z,3.5
2018-02-09T01:34:20.832Z,3.5
2018-02-09T01:35:21.067Z,3.6
2018-02-09T01:36:21.096Z,3.6
2018-02-09T01:37:21.031Z,3.7
2018-02-09T01:38:20.764Z,3.7
2018-02-09T01:39:20.747Z,3.6
2018-02-09T01:40:20.729Z,3.6
2018-02-09T01:41:20.963Z,3.5
2018-02-09T01:42:20.950Z,3.41
2018-02-09T01:43:20.929Z,3.7
2018-02-09T01:44:20.912Z,3.7
2018-02-09T01:45:20.895Z,3.41
2018-02-09T01:46:20.628Z,3.6
2018-02-09T01:47:20.611Z,3.7
2018-02-09T01:48:20.850Z,3.6
2018-02-09T01:49:20.827Z,3.6
2018-02-09T01:50:20.811Z,3.6
2018-02-09T01:51:20.544Z,3.7
2018-02-09T01:52:20.776Z,3.6
2018-02-09T01:53:20.759Z,3.5
2018-02-09T01:54:20.492Z,3.5
2018-02-09T01:55:20.724Z,3.7
2018-02-09T01:56:20.712Z,3.7
2018-02-09T01:57:20.442Z,3.6
2018-02-09T01:58:20.680Z,3.7
2018-02-09T01:59:20.657Z,3.7
2018-02-09T02:00:20.639Z,3.5
2018-02-09T02:01:20.374Z,3.6
2018-02-09T02:02:20.415Z,3.5
2018-02-09T02:03:20.339Z,3.41
2018-02-09T02:04:20.572Z,3.5
2018-02-09T02:05:20.560Z,3.5
2018-02-09T02:06:20.536Z,3.7
2018-02-09T02:07:20.523Z,3.7
2018-02-09T02:08:20.509Z,3.7
2018-02-09T02:09:20.488Z,3.5
2018-02-09T02:10:20.220Z,3.7
2018-02-09T02:11:20.456Z,3.6
2018-02-09T02:12:20.447Z,3.6
2018-02-09T02:13:20.429Z,3.7
2018-02-09T02:14:20.402Z,3.6
2018-02-09T02:15:20.386Z,3.6
2018-02-09T02:16:20.377Z,3.7
2018-02-09T02:17:20.351Z,3.7
2018-02-09T02:18:20.335Z,3.7
2018-02-09T02:19:20.356Z,3.6
2018-02-09T02:20:20.300Z,3.6
2018-02-09T02:21:20.284Z,3.7
2018-02-09T02:22:20.267Z,3.7
2018-02-09T02:23:19.999Z,3.6
2018-02-09T02:24:20.232Z,3.5
2018-02-09T02:25:19.965Z,3.6
2018-02-09T02:26:19.951Z,3.5
2018-02-09T02:27:19.932Z,3.6
2018-02-09T02:28:20.164Z,3.31
2018-02-09T02:29:19.896Z,3.41
2018-02-09T02:30:20.133Z,3.6
2018-02-09T02:31:20.117Z,3.5
2018-02-09T02:32:20.099Z,3.21
2018-02-09T02:33:20.143Z,3.41
2018-02-09T02:34:20.065Z,3.31
2018-02-09T02:35:20.045Z,3.31
2018-02-09T02:36:20.032Z,3.31
2018-02-09T02:37:20.012Z,3.31
2018-02-09T02:38:19.996Z,3.31
2018-02-09T02:39:19.983Z,3.5
2018-02-09T02:40:19.960Z,3.5
2018-02-09T02:41:19.945Z,3.31
2018-02-09T02:42:19.928Z,3.31
2018-02-09T02:43:19.911Z,3.31
2018-02-09T02:44:19.895Z,3.31
2018-02-09T02:45:19.878Z,3.41
2018-02-09T02:46:19.860Z,3.5
2018-02-09T02:47:19.843Z,3.41
2018-02-09T02:48:19.825Z,3.41
2018-02-09T02:49:19.815Z,3.31
2018-02-09T02:50:19.542Z,3.41
2018-02-09T02:51:19.778Z,3.31
2018-02-09T02:52:19.759Z,3.21
2018-02-09T02:53:19.748Z,3.41
2018-02-09T02:54:19.724Z,3.31
2018-02-09T02:55:19.709Z,3.41
2018-02-09T02:56:19.690Z,3.41
2018-02-09T02:57:19.673Z,3.31
2018-02-09T02:58:19.658Z,3.41
2018-02-09T02:59:19.639Z,3.41
2018-02-09T03:00:19.625Z,3.31
2018-02-09T03:01:19.606Z,3.31
2018-02-09T03:02:19.587Z,3.21
2018-02-09T03:03:19.572Z,3.31
2018-02-09T03:04:19.303Z,3.41
2018-02-09T03:05:19.535Z,3.21
2018-02-09T03:06:19.520Z,3.31
2018-02-09T03:07:19.503Z,3.21
2018-02-09T03:08:19.486Z,3.31
2018-02-09T03:09:19.468Z,3.31
2018-02-09T03:10:19.459Z,3.31
2018-02-09T03:11:19.434Z,3.31
2018-02-09T03:12:19.417Z,3.31
2018-02-09T03:13:19.401Z,3.11
2018-02-09T03:14:19.385Z,3.31
2018-02-09T03:15:19.366Z,3.41
2018-02-09T03:16:19.351Z,3.21
2018-02-09T03:17:19.084Z,3.31
2018-02-09T03:18:19.316Z,3.31
2018-02-09T03:19:19.298Z,3.41
2018-02-09T03:20:19.282Z,3.31
2018-02-09T03:21:19.269Z,3.31
2018-02-09T03:22:19.247Z,3.31
2018-02-09T03:23:18.980Z,3.31
2018-02-09T03:24:19.212Z,3.41
2018-02-09T03:25:19.196Z,3.31
2018-02-09T03:26:19.181Z,3.31
2018-02-09T03:27:19.164Z,3.31
2018-02-09T03:28:19.145Z,3.31
2018-02-09T03:29:19.130Z,3.31
2018-02-09T03:30:19.113Z,3.31
2018-02-09T03:31:19.103Z,3.31
2018-02-09T03:32:19.100Z,3.31
2018-02-09T03:33:19.061Z,3.31
2018-02-09T03:34:19.044Z,3.31
2018-02-09T03:35:18.779Z,3.31
2018-02-09T03:36:19.010Z,3.21
2018-02-09T03:37:18.993Z,3.21
2018-02-09T03:38:18.977Z,3.41
2018-02-09T03:39:18.959Z,3.41
2018-02-09T03:40:18.992Z,3.31
2018-02-09T03:41:18.925Z,3.21
2018-02-09T03:42:18.657Z,3.31
2018-02-09T03:43:18.892Z,3.31
2018-02-09T03:44:18.872Z,3.21
2018-02-09T03:45:18.855Z,3.21
2018-02-09T03:46:18.839Z,3.31
2018-02-09T03:47:18.826Z,3.31
2018-02-09T03:48:18.807Z,3.11
2018-02-09T03:49:18.788Z,3.31
2018-02-09T03:50:18.522Z,3.11
2018-02-09T03:51:18.506Z,3.31
2018-02-09T03:52:18.738Z,3.21
2018-02-09T03:53:18.720Z,3.31
2018-02-09T03:54:18.703Z,3.41
2018-02-09T03:55:18.687Z,3.31
2018-02-09T03:56:18.677Z,3.21
2018-02-09T03:57:18.403Z,3.21
2018-02-09T03:58:18.638Z,3.31
2018-02-09T03:59:18.618Z,3.21
2018-02-09T04:00:18.601Z,3.31
2018-02-09T04:01:18.584Z,3.21
2018-02-09T04:02:18.567Z,3.31
2018-02-09T04:03:18.550Z,3.31
2018-02-09T04:04:18.533Z,3.31
2018-02-09T04:05:18.266Z,3.5
2018-02-09T04:06:18.498Z,3.41
2018-02-09T04:07:18.232Z,3.41
2018-02-09T04:08:18.465Z,3.41
2018-02-09T04:09:18.448Z,3.31
2018-02-09T04:10:18.433Z,3.21
2018-02-09T04:11:18.420Z,3.21
2018-02-09T04:12:18.398Z,3.5
2018-02-09T04:13:18.380Z,3.5
2018-02-09T04:14:18.363Z,3.21
2018-02-09T04:15:18.103Z,3.41
2018-02-09T04:16:18.333Z,3.41
2018-02-09T04:17:18.064Z,3.31
2018-02-09T04:18:18.295Z,3.21
2018-02-09T04:19:18.280Z,3.21
2018-02-09T04:20:18.011Z,3.21
2018-02-09T04:21:18.245Z,3.11
2018-02-09T04:22:18.228Z,3.11
2018-02-09T04:23:18.214Z,3.11
2018-02-09T04:24:18.198Z,3.11
2018-02-09T04:25:18.176Z,3.31
2018-02-09T04:26:18.160Z,3.02
2018-02-09T04:27:18.142Z,3.02
2018-02-09T04:28:18.132Z,3.02
2018-02-09T04:29:18.108Z,3.02
2018-02-09T04:30:17.841Z,3.02
2018-02-09T04:31:17.827Z,2.92
2018-02-09T04:32:18.059Z,2.92
2018-02-09T04:33:18.041Z,3.02
2018-02-09T04:34:17.774Z,3.02
2018-02-09T04:35:18.020Z,3.02
2018-02-09T04:36:17.994Z,3.02
2018-02-09T04:37:17.973Z,3.02
2018-02-09T04:38:17.957Z,3.02
2018-02-09T04:39:17.690Z,3.11
2018-02-09T04:40:17.924Z,3.11
2018-02-09T04:41:17.906Z,3.11
2018-02-09T04:42:17.890Z,3.21
2018-02-09T04:43:17.871Z,3.11
2018-02-09T04:44:17.854Z,3.11
2018-02-09T04:45:17.588Z,3.11
2018-02-09T04:46:17.818Z,3.21
2018-02-09T04:47:17.806Z,3.02
2018-02-09T04:48:17.791Z,2.82
2018-02-09T04:49:17.770Z,2.92
2018-02-09T04:50:17.756Z,2.92
2018-02-09T04:51:17.486Z,2.92
2018-02-09T04:52:17.721Z,2.92
2018-02-09T04:53:17.451Z,2.82
2018-02-09T04:54:17.684Z,2.92
2018-02-09T04:55:17.668Z,2.92
2018-02-09T04:56:17.402Z,2.92
2018-02-09T04:57:17.633Z,2.82
2018-02-09T04:58:17.618Z,2.82
2018-02-09T04:59:17.349Z,2.82
2018-02-09T05:00:17.332Z,2.92
2018-02-09T05:01:17.565Z,3.02
2018-02-09T05:02:17.554Z,2.92
2018-02-09T05:03:17.532Z,2.92
2018-02-09T05:04:17.516Z,2.92
2018-02-09T05:05:17.496Z,2.82
2018-02-09T05:06:17.480Z,2.92
2018-02-09T05:07:17.464Z,2.92
2018-02-09T05:08:17.445Z,2.82
2018-02-09T05:09:17.430Z,2.92
2018-02-09T05:10:17.414Z,3.02
2018-02-09T05:11:17.404Z,3.02
2018-02-09T05:12:17.380Z,2.92
2018-02-09T05:13:17.363Z,2.72
2018-02-09T05:14:17.348Z,2.82
2018-02-09T05:15:17.328Z,2.82
2018-02-09T05:16:17.312Z,2.72
2018-02-09T05:17:17.368Z,2.82
2018-02-09T05:18:17.276Z,2.82
2018-02-09T05:19:17.260Z,2.82
2018-02-09T05:20:17.242Z,2.82
2018-02-09T05:21:17.225Z,2.82
2018-02-09T05:22:17.209Z,2.82
2018-02-09T05:23:16.941Z,2.82
2018-02-09T05:24:17.176Z,2.82
2018-02-09T05:25:17.161Z,2.62
2018-02-09T05:26:16.892Z,2.92
2018-02-09T05:27:17.149Z,2.82
2018-02-09T05:28:17.111Z,2.82
2018-02-09T05:29:17.090Z,2.72
2018-02-09T05:30:16.822Z,2.72
2018-02-09T05:31:17.057Z,2.72
2018-02-09T05:32:17.039Z,2.72
2018-02-09T05:33:17.022Z,2.82
2018-02-09T05:34:17.008Z,2.82
2018-02-09T05:35:16.737Z,2.82
2018-02-09T05:36:16.971Z,2.92
2018-02-09T05:37:16.703Z,2.82
2018-02-09T05:38:16.939Z,2.92
2018-02-09T05:39:16.669Z,2.82
2018-02-09T05:40:16.902Z,2.72
2018-02-09T05:41:16.898Z,2.82
2018-02-09T05:42:16.873Z,2.62
2018-02-09T05:43:16.851Z,2.62
2018-02-09T05:44:16.585Z,2.72
2018-02-09T05:45:16.816Z,2.53
2018-02-09T05:46:16.801Z,2.72
2018-02-09T05:47:16.535Z,2.72
2018-02-09T05:48:16.515Z,2.62
2018-02-09T05:49:16.753Z,2.44
2018-02-09T05:50:16.523Z,2.62
2018-02-09T05:51:16.986Z,2.53
2018-02-09T05:52:16.990Z,2.34
2018-02-09T05:53:16.691Z,2.53
2018-02-09T05:54:16.728Z,2.44
2018-02-09T05:55:16.687Z,2.62
2018-02-09T05:56:16.632Z,2.44
2018-02-09T05:57:17.006Z,2.53
2018-02-09T05:58:16.670Z,2.44
2018-02-09T05:59:16.626Z,2.34
2018-02-09T06:00:16.562Z,2.44
2018-02-09T06:01:16.846Z,2.34
2018-02-09T06:02:16.529Z,2.53
2018-02-09T06:03:16.519Z,2.34
2018-02-09T06:04:16.494Z,2.53
2018-02-09T06:05:16.788Z,2.53
2018-02-09T06:06:16.542Z,2.44
2018-02-09T06:07:17.486Z,2.44
2018-02-09T06:08:16.512Z,2.53
2018-02-09T06:09:16.480Z,2.53
2018-02-09T06:10:16.708Z,2.53
2018-02-09T06:11:16.644Z,2.62
2018-02-09T06:12:16.833Z,2.53
2018-02-09T06:13:16.631Z,2.62
2018-02-09T06:14:16.389Z,2.53
2018-02-09T06:15:16.328Z,2.62
2018-02-09T06:16:16.308Z,2.62
2018-02-09T06:17:16.274Z,2.62
2018-02-09T06:18:16.270Z,2.62
2018-02-09T06:19:16.251Z,2.62
2018-02-09T06:20:15.971Z,2.72
2018-02-09T06:21:16.205Z,2.62
2018-02-09T06:22:16.241Z,2.62
2018-02-09T06:23:16.172Z,2.62
2018-02-09T06:24:16.158Z,2.53
2018-02-09T06:25:16.140Z,2.62
2018-02-09T06:26:16.155Z,2.72
2018-02-09T06:27:16.124Z,2.72
2018-02-09T06:28:16.098Z,2.72
2018-02-09T06:29:16.395Z,2.53
2018-02-09T06:30:15.833Z,2.53
2018-02-09T06:31:16.034Z,1.95
2018-02-09T06:32:16.290Z,2.04
2018-02-09T06:33:16.009Z,2.24
2018-02-09T06:34:15.982Z,2.04
2018-02-09T06:35:15.988Z,2.23
2018-02-09T06:36:15.975Z,1.95
2018-02-09T06:37:15.930Z,2.04
2018-02-09T06:38:15.913Z,2.14
2018-02-09T06:39:15.999Z,2.04
2018-02-09T06:40:15.645Z,2.23
2018-02-09T06:41:15.863Z,2.24
2018-02-09T06:42:15.846Z,2.14
2018-02-09T06:43:15.577Z,2.14
2018-02-09T06:44:15.813Z,2.23
2018-02-09T06:45:15.799Z,2.14
2018-02-09T06:46:15.778Z,2.14
2018-02-09T06:47:15.759Z,2.53
2018-02-09T06:48:15.742Z,2.62
2018-02-09T06:49:15.732Z,2.43
2018-02-09T06:50:15.458Z,2.72
2018-02-09T06:51:15.716Z,2.72
2018-02-09T06:52:15.675Z,2.82
2018-02-09T06:53:15.662Z,2.82
2018-02-09T06:54:15.642Z,2.92
2018-02-09T06:55:15.629Z,2.92
2018-02-09T06:56:15.662Z,2.92
2018-02-09T06:57:15.639Z,3.02
2018-02-09T06:58:15.647Z,3.02
2018-02-09T06:59:15.618Z,2.92
2018-02-09T07:00:15.602Z,2.92
2018-02-09T07:01:15.585Z,2.92
2018-02-09T07:02:15.306Z,3.21
2018-02-09T07:03:15.574Z,2.92
2018-02-09T07:04:15.491Z,2.92
2018-02-09T07:05:15.948Z,2.92
2018-02-09T07:06:15.819Z,2.92
2018-02-09T07:07:15.485Z,2.92
2018-02-09T07:08:15.669Z,2.92
2018-02-09T07:09:15.734Z,3.02
2018-02-09T07:10:15.596Z,2.62
2018-02-09T07:11:15.430Z,2.82
2018-02-09T07:12:16.074Z,2.82
2018-02-09T07:13:15.582Z,2.92
2018-02-09T07:14:15.110Z,2.72
2018-02-09T07:15:15.065Z,2.43
2018-02-09T07:16:15.337Z,2.62
2018-02-09T07:17:15.285Z,2.53
2018-02-09T07:18:15.300Z,2.53
2018-02-09T07:19:15.525Z,2.62
2018-02-09T07:20:15.252Z,2.33
2018-02-09T07:21:15.476Z,2.43
2018-02-09T07:22:15.222Z,2.62
2018-02-09T07:23:15.693Z,2.53
2018-02-09T07:24:16.161Z,2.62
2018-02-09T07:25:15.145Z,2.62
2018-02-09T07:26:15.099Z,2.62
2018-02-09T07:27:15.076Z,2.43
2018-02-09T07:28:15.058Z,2.72
2018-02-09T07:29:15.048Z,2.53
2018-02-09T07:30:15.026Z,2.04
2018-02-09T07:31:15.010Z,2.23
2018-02-09T07:32:15.364Z,2.04
2018-02-09T07:33:14.982Z,2.24
2018-02-09T07:34:14.706Z,2.23
2018-02-09T07:35:14.940Z,2.14
2018-02-09T07:36:14.686Z,2.14
2018-02-09T07:37:14.915Z,2.23
2018-02-09T07:38:14.636Z,2.14
2018-02-09T07:39:14.623Z,2.34
2018-02-09T07:40:14.860Z,2.24
2018-02-09T07:41:14.849Z,2.24
2018-02-09T07:42:14.856Z,2.14
2018-02-09T07:43:14.893Z,2.34
2018-02-09T07:44:14.830Z,2.34
2018-02-09T07:45:14.770Z,2.44
2018-02-09T07:46:15.038Z,2.34
2018-02-09T07:47:14.792Z,2.34
2018-02-09T07:48:14.756Z,2.34
2018-02-09T07:49:14.740Z,2.34
2018-02-09T07:50:14.745Z,2.34
2018-02-09T07:51:14.432Z,2.14
2018-02-09T07:52:14.695Z,2.24
2018-02-09T07:53:14.668Z,2.14
2018-02-09T07:54:14.617Z,2.24
2018-02-09T07:55:14.599Z,2.14
2018-02-09T07:56:14.579Z,2.24
2018-02-09T07:57:14.314Z,2.24
2018-02-09T07:58:14.547Z,2.24
2018-02-09T07:59:14.542Z,2.14
2018-02-09T08:00:14.514Z,2.24
2018-02-09T08:01:14.816Z,1.95
2018-02-09T08:02:14.480Z,2.14
2018-02-09T08:03:14.469Z,1.95
2018-02-09T08:04:14.445Z,1.95
2018-02-09T08:05:14.177Z,1.85
2018-02-09T08:06:14.501Z,2.04
2018-02-09T08:07:14.431Z,1.95
2018-02-09T08:08:14.377Z,2.33
2018-02-09T08:09:14.163Z,2.23
2018-02-09T08:10:14.395Z,2.23
2018-02-09T08:11:14.325Z,2.24
2018-02-09T08:12:14.308Z,2.24
2018-02-09T08:13:14.292Z,2.23
2018-02-09T08:14:14.276Z,2.04
2018-02-09T08:15:14.312Z,2.24
2018-02-09T08:16:14.004Z,2.14
2018-02-09T08:17:14.245Z,2.14
2018-02-09T08:18:14.698Z,2.34
2018-02-09T08:19:14.187Z,2.14
2018-02-09T08:20:14.172Z,2.14
2018-02-09T08:21:13.913Z,2.14
2018-02-09T08:22:13.898Z,2.23
2018-02-09T08:23:14.167Z,2.34
2018-02-09T08:24:13.893Z,2.14
2018-02-09T08:25:14.133Z,2.34
2018-02-09T08:26:13.818Z,2.23
2018-02-09T08:27:13.802Z,2.34
2018-02-09T08:28:14.042Z,2.24
2018-02-09T08:29:13.768Z,2.34
2018-02-09T08:30:14.023Z,2.34
2018-02-09T08:31:14.038Z,2.34
2018-02-09T08:32:13.976Z,2.14
2018-02-09T08:33:13.954Z,2.33
2018-02-09T08:34:13.932Z,2.14
2018-02-09T08:35:13.941Z,2.14
2018-02-09T08:36:13.899Z,2.34
2018-02-09T08:37:14.144Z,2.23
2018-02-09T08:38:14.066Z,2.33
2018-02-09T08:39:13.919Z,2.23
2018-02-09T08:40:13.875Z,2.24
2018-02-09T08:41:13.854Z,2.23
2018-02-09T08:42:14.064Z,2.14
2018-02-09T08:43:13.779Z,2.23
2018-02-09T08:44:13.763Z,2.23
2018-02-09T08:45:13.748Z,2.14
2018-02-09T08:46:13.733Z,2.24
2018-02-09T08:47:13.771Z,2.24
2018-02-09T08:48:13.694Z,2.24
2018-02-09T08:49:13.689Z,2.14
2018-02-09T08:50:13.409Z,2.24
2018-02-09T08:51:13.679Z,2.24
2018-02-09T08:52:13.388Z,2.14
2018-02-09T08:53:13.608Z,2.34
2018-02-09T08:54:13.610Z,2.34
2018-02-09T08:55:13.341Z,2.14
2018-02-09T08:56:13.367Z,2.44
2018-02-09T08:57:13.878Z,2.24
2018-02-09T08:58:13.581Z,2.04
2018-02-09T08:59:13.783Z,2.24
2018-02-09T09:00:14.240Z,2.04
2018-02-09T09:01:13.780Z,1.95
2018-02-09T09:02:13.733Z,2.44
2018-02-09T09:03:13.951Z,2.04
2018-02-09T09:04:13.690Z,2.04
2018-02-09T09:05:13.193Z,2.34
2018-02-09T09:06:13.425Z,2.04
2018-02-09T09:07:13.715Z,1.95
2018-02-09T09:08:13.355Z,1.85
2018-02-09T09:09:13.364Z,1.75
2018-02-09T09:10:13.670Z,1.95
2018-02-09T09:11:13.340Z,2.04
2018-02-09T09:12:13.082Z,1.95
2018-02-09T09:13:13.308Z,1.95
2018-02-09T09:14:13.773Z,1.95
2018-02-09T09:15:13.322Z,1.95
2018-02-09T09:16:13.278Z,1.95
2018-02-09T09:17:12.972Z,1.95
2018-02-09T09:18:13.245Z,2.14
2018-02-09T09:19:13.244Z,2.14
2018-02-09T09:20:13.700Z,2.14
2018-02-09T09:21:13.394Z,2.04
2018-02-09T09:22:13.414Z,2.14
2018-02-09T09:23:13.168Z,1.85
2018-02-09T09:24:13.475Z,1.75
2018-02-09T09:25:13.149Z,2.14
2018-02-09T09:26:13.109Z,2.04
2018-02-09T09:27:13.333Z,2.04
2018-02-09T09:28:13.107Z,2.04
2018-02-09T09:29:13.288Z,1.95
2018-02-09T09:30:13.013Z,1.85
2018-02-09T09:31:13.762Z,1.85
2018-02-09T09:32:12.715Z,1.85
2018-02-09T09:33:13.498Z,2.04
2018-02-09T09:34:13.219Z,1.85
2018-02-09T09:35:12.964Z,2.04
2018-02-09T09:36:13.198Z,1.95
2018-02-09T09:37:13.182Z,2.04
2018-02-09T09:38:13.130Z,1.95
2018-02-09T09:39:13.137Z,2.04
2018-02-09T09:40:12.848Z,1.95
2018-02-09T09:41:12.869Z,1.85
2018-02-09T09:42:12.543Z,1.75
2018-02-09T09:43:12.798Z,2.04
2018-02-09T09:44:12.808Z,2.14
2018-02-09T09:45:13.037Z,1.95
2018-02-09T09:46:13.017Z,1.75
